Time;durP1;ratioP1;P1;durP2;ratioP2;P2;SDS_P1;SDS_P2;PMS_P1;PMS_P2;Temp;Humidity;BMP_temperature;BMP_pressure;BME280_temperature;BME280_humidity;BME280_pressure;Samples;Min_cycle;Max_cycle;Signal;HPM_P1;HPM_P2
2021/03/26 00:02:14;;;;;;;38.10;20.37;;;;;;;2.47;44.97;99639.77;1804171;78;21260;-39
2021/03/26 00:04:42;;;;;;;37.35;20.97;;;;;;;2.46;45.18;99635.52;1804119;78;21455;-39
2021/03/26 00:07:12;;;;;;;41.45;21.40;;;;;;;2.46;45.22;99644.33;1804450;78;21174;-39
2021/03/26 00:09:42;;;;;;;37.08;20.65;;;;;;;2.45;44.93;99648.63;1806086;78;21019;-39
2021/03/26 00:12:14;;;;;;;32.45;19.00;;;;;;;2.40;44.72;99646.06;1804939;78;21039;-39
2021/03/26 00:14:42;;;;;;;37.60;18.83;;;;;;;2.35;44.52;99638.93;1803684;78;21202;-39
2021/03/26 00:17:10;;;;;;;39.30;20.75;;;;;;;2.31;44.94;99645.97;1783742;78;21177;-39
2021/03/26 00:19:39;;;;;;;37.88;19.48;;;;;;;2.29;45.11;99654.03;1800889;78;21216;-38
2021/03/26 00:22:07;;;;;;;34.85;19.02;;;;;;;2.32;45.00;99646.23;1783222;78;21201;-39
2021/03/26 00:24:35;;;;;;;39.75;18.90;;;;;;;2.33;44.99;99651.00;1802761;78;21134;-39
2021/03/26 00:27:05;;;;;;;33.50;17.65;;;;;;;2.32;45.13;99647.56;1783307;78;21366;-39
2021/03/26 00:29:34;;;;;;;34.67;17.48;;;;;;;2.33;45.34;99654.47;1774498;80;21177;-39
2021/03/26 00:32:04;;;;;;;33.38;17.80;;;;;;;2.33;45.27;99649.13;1801606;78;21205;-39
2021/03/26 00:34:32;;;;;;;26.25;15.63;;;;;;;1.95;45.11;99584.89;1780203;78;21145;-39
2021/03/26 00:37:00;;;;;;;33.53;18.65;;;;;;;2.34;45.23;99647.24;1801330;78;21641;-39
2021/03/26 00:39:28;;;;;;;33.13;18.77;;;;;;;2.32;45.49;99651.58;1783549;78;21471;-39
2021/03/26 00:41:58;;;;;;;35.68;18.80;;;;;;;2.32;45.48;99651.58;1800120;78;20992;-39
2021/03/26 00:44:26;;;;;;;35.95;18.73;;;;;;;2.28;45.53;99657.79;1784336;78;21221;-39
2021/03/26 00:46:55;;;;;;;32.42;17.70;;;;;;;2.21;45.77;99650.17;1768960;80;21178;-39
2021/03/26 00:49:23;;;;;;;34.92;19.50;;;;;;;2.17;45.90;99654.54;1780338;78;21186;-39
2021/03/26 00:51:50;;;;;;;37.30;21.20;;;;;;;2.11;46.02;99652.50;1781116;79;21581;-39
2021/03/26 00:54:19;;;;;;;37.75;21.25;;;;;;;2.10;46.13;99656.26;1801948;78;21214;-39
2021/03/26 00:56:47;;;;;;;39.80;22.52;;;;;;;2.08;46.16;99651.73;1781080;79;21166;-39
2021/03/26 00:59:15;;;;;;;37.88;22.13;;;;;;;2.07;46.36;99650.17;1804323;78;21206;-39
2021/03/26 01:01:43;;;;;;;38.38;21.17;;;;;;;2.06;46.60;99655.27;1787273;79;21421;-39
2021/03/26 01:04:11;;;;;;;39.67;20.52;;;;;;;2.09;46.57;99656.00;1786890;79;22149;-39
2021/03/26 01:06:41;;;;;;;42.43;21.67;;;;;;;2.08;46.56;99651.73;1779745;79;21040;-39
2021/03/26 01:09:09;;;;;;;44.98;22.35;;;;;;;2.08;46.58;99648.30;1775887;80;21644;-39
2021/03/26 01:11:40;;;;;;;43.30;24.05;;;;;;;2.09;46.60;99653.33;1766519;80;21232;-39
2021/03/26 01:14:18;;;;;;;49.67;24.45;;;;;;;2.10;46.85;99650.11;1761766;79;21178;-39
2021/03/26 01:16:48;;;;;;;47.83;24.63;;;;;;;2.06;46.93;99652.59;1744242;80;21024;-38
2021/03/26 01:19:17;;;;;;;43.28;22.37;;;;;;;2.06;46.99;99651.26;1771340;80;21071;-38
2021/03/26 01:21:46;;;;;;;44.35;23.45;;;;;;;2.06;46.99;99653.93;1766247;80;21193;-38
2021/03/26 01:24:16;;;;;;;41.58;23.73;;;;;;;2.05;46.89;99659.02;1764446;79;22239;-39
2021/03/26 01:26:46;;;;;;;45.20;26.05;;;;;;;2.07;46.92;99660.08;1766156;80;21219;-39
2021/03/26 01:29:26;;;;;;;47.50;25.57;;;;;;;2.08;47.17;99665.11;1772235;80;21198;-39
2021/03/26 01:31:59;;;;;;;43.15;21.85;;;;;;;2.07;47.36;99656.86;1771735;80;21857;-39
2021/03/26 01:34:28;;;;;;;40.20;21.75;;;;;;;2.04;47.47;99662.78;1771468;80;21206;-39
2021/03/26 01:36:57;;;;;;;;;;;;;;;2.04;47.57;99665.45;1767465;80;21059;-39
2021/03/26 01:39:26;;;;;;;41.77;20.65;;;;;;;2.04;47.66;99671.34;1772260;80;20306;-39
2021/03/26 01:41:56;;;;;;;37.70;19.82;;;;;;;1.96;47.85;99663.47;1773368;80;21248;-39
2021/03/26 01:44:27;;;;;;;42.60;22.07;;;;;;;1.97;47.70;99660.26;1765209;80;21146;-39
2021/03/26 01:47:07;;;;;;;39.05;21.10;;;;;;;2.01;47.78;99660.70;1820127;76;22777;-39
2021/03/26 01:49:36;;;;;;;42.83;22.70;;;;;;;1.97;47.84;99667.73;1784535;79;21101;-39
2021/03/26 01:52:07;;;;;;;;;;;;;;;1.94;48.00;99664.84;1788057;79;21448;-39
2021/03/26 01:54:35;;;;;;;41.75;23.45;;;;;;;1.95;48.04;99673.12;1785905;79;20195;-39
2021/03/26 01:57:08;;;;;;;40.58;22.82;;;;;;;1.86;48.37;99673.55;1785206;79;21027;-39
2021/03/26 01:59:40;;;;;;;38.40;20.75;;;;;;;1.87;48.31;99682.62;1787389;79;21039;-39
2021/03/26 02:02:20;;;;;;;37.50;20.00;;;;;;;1.88;48.24;99678.87;1785346;79;21075;-39
2021/03/26 02:05:15;;;;;;;33.80;19.48;;;;;;;1.90;48.19;99680.69;1811630;78;22881;-39
2021/03/26 02:07:45;;;;;;;40.65;20.17;;;;;;;1.86;48.26;99684.23;1778588;79;21612;-39
2021/03/26 02:10:18;;;;;;;38.67;19.95;;;;;;;1.85;48.10;99684.78;1753486;79;21271;-39
2021/03/26 02:12:46;;;;;;;36.85;19.35;;;;;;;1.84;48.15;99687.20;1747669;79;21039;-39
2021/03/26 02:15:24;;;;;;;36.42;19.73;;;;;;;1.85;48.12;99692.80;1783381;79;21032;-39
2021/03/26 02:19:05;;;;;;;38.23;20.17;;;;;;;1.92;48.17;99694.56;1818133;76;22295;-39
2021/03/26 02:21:36;;;;;;;36.08;19.80;;;;;;;1.83;48.39;99700.34;1790456;77;21047;-39
2021/03/26 02:24:07;;;;;;;36.13;19.20;;;;;;;1.83;48.57;99696.33;1792954;77;21328;-39
2021/03/26 02:26:44;;;;;;;35.30;17.90;;;;;;;1.85;48.56;99699.48;1790387;77;21039;-39
2021/03/26 02:29:25;;;;;;;35.92;18.32;;;;;;;1.85;48.48;99699.48;1790338;77;21047;-39
2021/03/26 02:32:10;;;;;;;;;;;;;;;1.86;48.54;99705.63;1793668;77;21051;-39
2021/03/26 02:34:39;;;;;;;34.40;18.17;;;;;;;1.82;48.76;99704.09;1792373;77;20171;-39
2021/03/26 02:37:10;;;;;;;35.80;18.17;;;;;;;1.72;48.95;99705.59;1792112;77;21281;-39
2021/03/26 02:39:46;;;;;;;33.18;18.35;;;;;;;1.73;49.04;99707.19;1791494;78;21062;-39
2021/03/26 02:42:22;;;;;;;39.00;18.80;;;;;;;1.75;49.10;99710.34;1791513;77;21589;-39
2021/03/26 02:45:10;;;;;;;32.70;18.17;;;;;;;1.74;49.23;99708.78;1788360;77;21153;-39
2021/03/26 02:47:59;;;;;;;34.10;18.50;;;;;;;1.76;49.27;99705.25;1821290;76;23242;-39
2021/03/26 02:50:40;;;;;;;;;;;;;;;1.69;49.44;99708.30;1770802;78;21031;-39
2021/03/26 02:53:32;;;;;;;35.20;18.23;;;;;;;1.68;49.65;99704.59;1787493;78;21852;-38
2021/03/26 02:56:09;;;;;;;34.83;18.15;;;;;;;1.57;49.96;99703.16;1769055;78;20974;-39
2021/03/26 02:58:39;;;;;;;39.33;18.23;;;;;;;1.56;50.10;99703.70;1787430;78;21069;-39
2021/03/26 03:01:33;;;;;;;33.08;17.52;;;;;;;1.56;50.26;99705.58;1788514;78;21197;-39
2021/03/26 03:04:16;;;;;;;32.17;17.10;;;;;;;1.56;50.46;99709.58;1738124;78;21010;-39
2021/03/26 03:06:52;;;;;;;32.53;17.32;;;;;;;1.51;50.85;99706.98;1786304;78;21178;-38
2021/03/26 03:09:53;;;;;;;32.15;18.02;;;;;;;1.41;51.11;99704.47;1824701;77;22807;-39
2021/03/26 03:12:29;;;;;;;32.25;17.73;;;;;;;1.41;51.11;99704.47;1798210;79;21636;-39
2021/03/26 03:15:21;;;;;;;33.70;17.87;;;;;;;1.41;51.46;99712.48;1744236;80;22213;-39
2021/03/26 03:18:10;;;;;;;30.05;16.52;;;;;;;1.43;51.55;99713.80;1738479;81;21152;-39
2021/03/26 03:20:56;;;;;;;27.13;12.95;;;;;;;1.42;51.68;99708.20;1731797;82;21050;-38
2021/03/26 03:23:43;;;;;;;31.55;16.57;;;;;;;1.40;51.97;99715.73;1764580;80;21056;-39
2021/03/26 03:26:54;;;;;;;31.30;15.60;;;;;;;1.36;52.27;99716.56;1762100;79;21044;-39
2021/03/26 03:29:34;;;;;;;27.73;15.60;;;;;;;1.31;52.47;99699.53;1763914;79;21225;-38
2021/03/26 03:32:29;;;;;;;;;;;;;;;1.37;52.79;99717.63;1765431;79;22121;-39
2021/03/26 03:35:25;;;;;;;32.78;16.35;;;;;;;1.37;53.11;99718.16;1763250;80;20183;-39
2021/03/26 03:38:32;;;;;;;28.85;14.95;;;;;;;1.25;53.50;99724.75;1728543;80;21759;-39
2021/03/26 03:41:15;;;;;;;28.77;15.00;;;;;;;1.25;53.83;99725.29;1746182;80;21163;-39
2021/03/26 03:44:21;;;;;;;27.22;15.08;;;;;;;1.24;54.13;99729.84;1766181;80;21194;-39
2021/03/26 03:46:53;;;;;;;28.20;14.33;;;;;;;1.24;54.36;99729.84;1750945;80;21048;-39
2021/03/26 03:49:51;;;;;;;29.27;15.65;;;;;;;1.26;54.70;99735.66;1810707;78;22319;-39
2021/03/26 03:52:38;;;;;;;24.15;14.07;;;;;;;1.23;54.74;99732.25;1783530;79;21051;-38
2021/03/26 03:55:28;;;;;;;25.13;16.50;;;;;;;1.28;54.88;99730.05;1809583;77;28543;-39
2021/03/26 03:58:08;;;;;;;25.68;14.50;;;;;;;1.64;54.34;99728.98;1802575;78;21008;-39
2021/03/26 04:00:54;;;;;;;26.93;14.13;;;;;;;1.71;54.16;99734.73;1802824;78;21371;-39
2021/03/26 04:03:31;;;;;;;24.12;14.03;;;;;;;1.71;54.16;99734.73;1794361;78;21864;-39
2021/03/26 04:06:12;;;;;;;24.30;13.48;;;;;;;1.61;54.61;99732.22;1730267;80;21045;-40
2021/03/26 04:08:53;;;;;;;21.62;13.90;;;;;;;1.55;54.84;99737.41;1708789;81;21057;-40
2021/03/26 04:11:31;;;;;;;15.83;10.30;;;;;;;1.51;55.22;99740.39;1723163;81;21646;-40
2021/03/26 04:14:10;;;;;;;26.60;13.88;;;;;;;1.47;55.52;99742.85;1749006;81;21638;-40
2021/03/26 04:16:40;;;;;;;23.18;14.35;;;;;;;1.41;55.77;99741.87;1751436;81;21922;-40
2021/03/26 04:19:23;;;;;;;24.60;14.03;;;;;;;1.41;55.90;99743.20;1750369;81;21598;-40
2021/03/26 04:22:02;;;;;;;21.23;12.90;;;;;;;1.46;56.03;99744.47;1750928;81;21056;-40
2021/03/26 04:25:06;;;;;;;24.32;14.13;;;;;;;1.50;56.21;99748.17;1870948;76;22688;-39
2021/03/26 04:27:41;;;;;;;20.12;12.73;;;;;;;1.45;56.35;99753.59;1874189;75;21046;-38
2021/03/26 04:30:28;;;;;;;22.90;12.03;;;;;;;1.48;56.62;99761.02;1826184;77;22823;-39
2021/03/26 04:32:58;;;;;;;23.70;12.23;;;;;;;1.46;57.01;99761.83;1794547;78;21003;-39
2021/03/26 04:35:27;;;;;;;22.02;12.80;;;;;;;1.47;56.96;99762.09;1797186;78;21971;-39
2021/03/26 04:38:08;;;;;;;25.40;12.65;;;;;;;1.52;57.11;99760.69;1762420;78;21057;-40
2021/03/26 04:40:42;;;;;;;20.08;12.15;;;;;;;1.53;57.29;99762.28;1736123;80;21483;-40
2021/03/26 04:44:01;;;;;;;17.42;11.70;;;;;;;1.55;57.54;99762.23;1732495;80;21613;-39
2021/03/26 04:46:53;;;;;;;20.77;12.68;;;;;;;1.54;57.82;99767.88;1761783;79;21024;-39
2021/03/26 04:49:28;;;;;;;22.85;11.95;;;;;;;1.52;58.07;99764.69;1734891;82;21395;-40
2021/03/26 04:52:03;;;;;;;23.07;12.68;;;;;;;1.55;58.29;99765.47;1757829;80;21065;-40
2021/03/26 04:54:49;;;;;;;20.75;12.45;;;;;;;1.60;58.39;99769.38;1761013;80;21902;-40
2021/03/26 04:57:57;;;;;;;19.57;12.13;;;;;;;1.71;58.52;99771.61;1869896;76;23358;-39
2021/03/26 05:00:49;;;;;;;19.92;11.53;;;;;;;1.71;58.68;99773.48;1778374;79;21030;-39
2021/03/26 05:03:35;;;;;;;19.95;12.23;;;;;;;1.74;58.90;99771.02;1778063;78;21593;-39
2021/03/26 05:06:23;;;;;;;19.25;11.60;;;;;;;1.73;59.23;99771.33;1807143;78;21003;-39
2021/03/26 05:09:09;;;;;;;21.45;12.55;;;;;;;1.75;59.40;99773.95;1806048;78;21902;-40
2021/03/26 05:11:42;;;;;;;20.43;11.88;;;;;;;1.79;59.67;99764.83;1784307;80;22184;-40
2021/03/26 05:14:28;;;;;;;17.12;12.13;;;;;;;1.85;59.83;99768.19;1754354;80;21162;-40
2021/03/26 05:17:26;;;;;;;20.17;12.63;;;;;;;1.91;60.01;99769.16;1776183;79;21255;-40
2021/03/26 05:20:36;;;;;;;21.20;14.70;;;;;;;1.98;60.52;99767.47;1808283;78;28071;-39
2021/03/26 05:23:43;;;;;;;20.65;13.65;;;;;;;2.26;60.16;99777.69;1800532;78;21279;-39
2021/03/26 05:26:34;;;;;;;22.67;13.28;;;;;;;2.43;59.97;99780.04;1799882;78;21283;-40
2021/03/26 05:29:10;;;;;;;24.92;14.65;;;;;;;2.27;60.64;99781.41;1798647;78;21020;-39
2021/03/26 05:32:14;;;;;;;24.92;14.30;;;;;;;2.21;61.08;99784.45;1799380;79;21011;-39
2021/03/26 05:34:57;;;;;;;29.65;14.30;;;;;;;2.22;61.35;99784.17;1780351;78;21576;-39
2021/03/26 05:37:34;;;;;;;20.82;13.83;;;;;;;2.23;61.56;99785.73;1769384;79;21154;-42
2021/03/26 05:40:53;;;;;;;21.62;14.13;;;;;;;2.28;61.78;99792.88;1771751;79;21392;-39
2021/03/26 05:44:14;;;;;;;21.17;14.87;;;;;;;2.28;61.98;99792.88;1801327;79;21584;-38
2021/03/26 05:47:09;;;;;;;23.90;14.90;;;;;;;2.28;62.14;99788.87;1799919;79;20984;-40
2021/03/26 05:50:20;;;;;;;21.37;13.98;;;;;;;2.30;62.46;99785.37;1798653;78;21207;-40
2021/03/26 05:53:14;;;;;;;22.90;14.70;;;;;;;2.31;62.58;99787.76;1798953;79;22225;-40
2021/03/26 05:56:31;;;;;;;23.02;13.25;;;;;;;2.35;62.89;99795.44;1796056;78;21528;-40
2021/03/26 05:59:13;;;;;;;22.85;14.13;;;;;;;2.42;62.87;99796.41;1785082;79;21157;-39
2021/03/26 06:02:16;;;;;;;23.32;14.25;;;;;;;2.50;63.05;99799.73;1800396;78;20976;-40
2021/03/26 06:05:20;;;;;;;20.80;12.78;;;;;;;2.60;63.13;99806.23;1800823;78;21197;-39
2021/03/26 06:08:55;;;;;;;22.75;13.80;;;;;;;2.67;63.16;99811.19;1794447;78;21138;-39
2021/03/26 06:12:30;;;;;;;27.60;14.07;;;;;;;2.76;63.11;99806.19;1815190;78;21884;-40
2021/03/26 06:15:34;;;;;;;31.62;15.90;;;;;;;2.91;63.00;99809.12;1801326;79;21106;-40
2021/03/26 06:18:53;;;;;;;26.73;17.47;;;;;;;3.09;62.73;99808.78;1795929;76;28565;-39
2021/03/26 06:22:16;;;;;;;28.65;16.05;;;;;;;3.54;61.71;99809.69;1799222;79;20999;-39
2021/03/26 06:25:33;;;;;;;23.38;13.88;;;;;;;3.76;60.69;99821.27;1812652;79;21485;-39
2021/03/26 06:28:19;;;;;;;22.42;14.15;;;;;;;3.72;60.67;99817.61;1807668;79;20999;-39
2021/03/26 06:30:56;;;;;;;23.02;13.32;;;;;;;3.77;60.68;99822.86;1796004;79;21032;-39
2021/03/26 06:34:08;;;;;;;27.52;14.85;;;;;;;3.92;60.53;99821.14;1860784;75;22723;-39
2021/03/26 06:36:53;;;;;;;25.25;14.35;;;;;;;3.99;60.39;99826.64;1832063;77;20959;-39
2021/03/26 06:40:02;;;;;;;23.62;13.08;;;;;;;4.07;60.17;99825.91;1783766;80;23618;-39
2021/03/26 06:42:48;;;;;;;23.55;13.72;;;;;;;4.32;59.43;99821.27;1765662;80;21099;-39
2021/03/26 06:45:50;;;;;;;22.67;13.38;;;;;;;4.32;59.43;99821.27;1765903;80;21154;-39
2021/03/26 06:48:28;;;;;;;22.37;13.60;;;;;;;4.42;59.23;99821.02;1780548;80;21193;-39
2021/03/26 06:51:28;;;;;;;22.40;13.90;;;;;;;4.51;58.98;99825.87;1806565;78;21031;-39
2021/03/26 06:54:26;;;;;;;24.20;14.47;;;;;;;4.61;58.89;99824.28;1783507;78;21453;-39
2021/03/26 06:57:03;;;;;;;21.00;13.53;;;;;;;4.73;58.55;99821.83;1772407;80;21410;-40
2021/03/26 07:00:29;;;;;;;23.47;13.55;;;;;;;4.86;58.14;99827.39;1804229;78;20984;-40
2021/03/26 07:03:26;;;;;;;21.95;13.60;;;;;;;4.99;58.26;99819.77;1803530;78;21540;-40
2021/03/26 07:06:44;;;;;;;21.27;12.95;;;;;;;5.16;57.90;99826.56;1805574;78;21161;-40
2021/03/26 07:09:17;;;;;;;22.17;12.55;;;;;;;5.38;57.47;99829.14;1782043;79;21294;-40
2021/03/26 07:12:21;;;;;;;20.70;13.60;;;;;;;5.56;56.96;99826.73;1782433;79;21580;-40
2021/03/26 07:15:15;;;;;;;20.80;13.08;;;;;;;5.70;56.73;99815.83;1781797;79;21181;-40
2021/03/26 07:18:27;;;;;;;20.57;12.93;;;;;;;5.59;56.39;99776.34;1781675;79;21228;-40
2021/03/26 07:21:12;;;;;;;21.97;13.70;;;;;;;6.03;55.52;99822.34;1706148;83;21464;-40
2021/03/26 07:24:16;;;;;;;20.17;13.10;;;;;;;6.19;55.49;99824.00;1758891;81;21379;-40
2021/03/26 07:27:11;;;;;;;24.10;14.28;;;;;;;6.35;55.21;99822.38;1758371;81;21078;-40
2021/03/26 07:30:28;;;;;;;17.95;11.45;;;;;;;6.52;54.64;99823.70;1758383;81;21752;-40
2021/03/26 07:33:19;;;;;;;21.00;12.73;;;;;;;6.68;54.48;99821.84;1750804;81;21157;-40
2021/03/26 07:36:34;;;;;;;21.62;13.70;;;;;;;6.95;54.08;99824.11;1813704;78;22707;-39
2021/03/26 07:39:22;;;;;;;24.30;13.48;;;;;;;7.11;54.06;99835.94;1810284;78;21040;-40
2021/03/26 07:42:23;;;;;;;18.77;12.40;;;;;;;7.38;53.06;99827.93;1809074;78;22270;-39
2021/03/26 07:45:27;;;;;;;18.98;12.03;;;;;;;7.65;52.70;99831.47;1810921;78;21075;-39
2021/03/26 07:48:19;;;;;;;20.82;12.45;;;;;;;7.60;52.16;99785.03;1810413;78;21043;-39
2021/03/26 07:50:58;;;;;;;17.17;12.13;;;;;;;8.14;51.16;99833.08;1808714;78;21735;-39
2021/03/26 07:53:36;;;;;;;21.10;12.90;;;;;;;8.04;50.71;99782.17;1810733;78;21582;-39
2021/03/26 07:56:37;;;;;;;15.65;11.95;;;;;;;8.56;49.87;99837.33;1810136;78;21075;-39
2021/03/26 07:59:11;;;;;;;21.95;11.85;;;;;;;8.76;49.59;99841.65;1756881;78;21312;-39
2021/03/26 08:01:57;;;;;;;20.60;12.82;;;;;;;9.01;49.29;99837.83;1808863;78;20989;-39
2021/03/26 08:04:43;;;;;;;19.30;12.58;;;;;;;9.27;48.56;99838.86;1810315;78;21755;-39
2021/03/26 08:07:41;;;;;;;18.23;11.73;;;;;;;9.55;48.03;99838.38;1809739;77;21570;-39
2021/03/26 08:10:30;;;;;;;18.23;12.03;;;;;;;9.81;46.99;99838.00;1809485;78;21180;-39
2021/03/26 08:13:30;;;;;;;18.27;12.40;;;;;;;9.98;45.64;99841.22;1810111;78;21806;-39
2021/03/26 08:16:18;;;;;;;17.65;11.35;;;;;;;10.10;45.48;99838.26;1809881;78;21059;-39
2021/03/26 08:19:24;;;;;;;16.07;11.05;;;;;;;10.26;44.81;99844.55;1809730;78;21624;-40
2021/03/26 08:22:24;;;;;;;19.15;12.05;;;;;;;10.42;44.45;99844.02;1809198;78;21178;-39
2021/03/26 08:25:03;;;;;;;14.87;10.10;;;;;;;10.81;43.75;99841.77;1809812;78;21191;-40
2021/03/26 08:28:01;;;;;;;19.37;11.53;;;;;;;10.81;43.75;99841.77;1810229;78;21568;-40
2021/03/26 08:31:07;;;;;;;18.67;11.10;;;;;;;10.99;42.78;99842.80;1752716;78;21780;-40
2021/03/26 08:34:10;;;;;;;16.40;10.68;;;;;;;11.14;42.76;99838.70;1808739;78;21467;-40
2021/03/26 08:36:59;;;;;;;17.15;10.53;;;;;;;10.66;42.14;99744.13;1806476;79;21154;-40
2021/03/26 08:39:41;;;;;;;15.03;10.63;;;;;;;11.35;41.68;99838.42;1769894;80;21324;-39
2021/03/26 08:42:40;;;;;;;16.05;11.30;;;;;;;11.47;42.05;99838.33;1764589;79;21162;-40
2021/03/26 08:45:18;;;;;;;13.85;9.85;;;;;;;11.68;41.21;99836.07;1808655;79;21027;-39
2021/03/26 08:47:58;;;;;;;13.90;9.83;;;;;;;11.89;40.87;99839.06;1808476;79;21429;-40
2021/03/26 08:50:47;;;;;;;;;;;;;;;12.11;40.29;99838.35;1809826;77;22234;-39
2021/03/26 08:53:29;;;;;;;13.68;9.10;;;;;;;12.34;39.78;99841.94;1807060;79;21999;-40
2021/03/26 08:56:24;;;;;;;12.60;8.90;;;;;;;12.43;38.56;99839.78;1806955;79;21154;-40
2021/03/26 08:59:24;;;;;;;15.10;9.60;;;;;;;12.60;38.10;99840.67;1806688;79;21115;-39
2021/03/26 09:02:21;;;;;;;14.23;8.78;;;;;;;12.73;37.87;99840.52;1793836;79;21753;-39
2021/03/26 09:05:24;;;;;;;10.38;8.08;;;;;;;12.92;36.55;99842.62;1806909;79;21545;-40
2021/03/26 09:08:18;;;;;;;12.13;7.95;;;;;;;13.07;35.50;99843.61;1803612;79;21173;-40
2021/03/26 09:11:36;;;;;;;12.43;8.78;;;;;;;13.20;35.10;99840.95;1774160;79;21012;-39
2021/03/26 09:14:46;;;;;;;10.45;7.65;;;;;;;13.33;35.64;99844.26;1805073;79;21155;-40
2021/03/26 09:17:21;;;;;;;11.28;7.03;;;;;;;13.46;35.46;99843.68;1792965;77;21595;-40
2021/03/26 09:20:36;;;;;;;9.88;6.33;;;;;;;13.72;32.48;99844.83;1805042;79;21154;-40
2021/03/26 09:23:44;;;;;;;8.30;6.35;;;;;;;13.81;31.48;99835.80;1805696;79;21367;-39
2021/03/26 09:26:52;;;;;;;8.48;6.85;;;;;;;13.85;31.93;99845.59;1806356;79;21362;-40
2021/03/26 09:29:26;;;;;;;9.53;6.53;;;;;;;13.99;31.38;99846.95;1807130;79;21127;-40
2021/03/26 09:32:01;;;;;;;12.05;7.37;;;;;;;14.23;31.37;99832.84;1780553;79;21135;-40
2021/03/26 09:34:33;;;;;;;8.10;6.05;;;;;;;14.54;30.36;99837.09;1778173;78;21301;-40
2021/03/26 09:37:26;;;;;;;8.48;6.15;;;;;;;14.68;28.96;99842.70;1808018;78;21954;-40
2021/03/26 09:39:59;;;;;;;8.18;5.10;;;;;;;14.74;29.61;99845.30;1809732;78;21142;-39
2021/03/26 09:42:35;;;;;;;10.53;7.17;;;;;;;14.91;27.38;99847.40;1807549;78;21170;-40
2021/03/26 09:45:31;;;;;;;11.35;7.30;;;;;;;15.01;28.86;99845.92;1809136;78;21153;-40
2021/03/26 09:48:23;;;;;;;9.18;6.92;;;;;;;15.17;29.41;99847.83;1808282;78;21222;-40
2021/03/26 09:51:14;;;;;;;11.38;6.83;;;;;;;15.34;28.68;99853.23;1809874;78;21359;-40
2021/03/26 09:53:45;;;;;;;8.35;6.00;;;;;;;15.23;28.76;99853.14;1775309;80;21162;-40
2021/03/26 09:56:39;;;;;;;9.88;6.10;;;;;;;15.39;28.29;99859.72;1808333;78;21158;-40
2021/03/26 09:59:37;;;;;;;8.68;6.90;;;;;;;15.56;27.92;99855.76;1809654;78;21153;-40
2021/03/26 10:02:13;;;;;;;8.45;6.62;;;;;;;15.81;27.91;99844.19;1809749;78;21091;-40
2021/03/26 10:04:49;;;;;;;9.43;6.53;;;;;;;15.99;27.90;99848.58;1748919;78;22436;-40
2021/03/26 10:07:31;;;;;;;15.05;7.35;;;;;;;16.16;28.15;99854.52;1808568;78;21154;-40
2021/03/26 10:13:01;;;;;;;9.48;6.40;;;;;;;16.68;26.62;99851.78;1808302;78;21016;-40
2021/03/26 10:15:45;;;;;;;9.13;6.17;;;;;;;16.76;26.72;99840.44;1807933;78;21408;-40
2021/03/26 10:18:25;;;;;;;7.58;5.53;;;;;;;16.84;27.33;99850.25;1806975;78;22311;-40
2021/03/26 10:21:03;;;;;;;7.12;5.45;;;;;;;17.02;26.96;99848.11;1808018;78;21722;-40
2021/03/26 10:24:04;;;;;;;7.42;5.42;;;;;;;17.13;25.49;99852.43;1809723;78;21805;-40
2021/03/26 10:27:01;;;;;;;10.40;6.15;;;;;;;17.19;25.71;99843.20;1807769;78;21194;-40
2021/03/26 10:29:47;;;;;;;9.00;6.12;;;;;;;17.10;25.99;99834.59;1807905;78;21206;-40
2021/03/26 10:32:23;;;;;;;7.97;5.53;;;;;;;17.26;26.81;99839.11;1810584;78;21435;-40
2021/03/26 10:34:54;;;;;;;10.25;7.53;;;;;;;17.45;26.30;99844.17;1806124;78;21289;-40
2021/03/26 10:38:01;;;;;;;12.13;8.38;;;;;;;17.58;26.66;99843.95;1799083;79;21167;-40
2021/03/26 10:41:02;;;;;;;8.08;6.35;;;;;;;17.61;26.72;99844.58;1797742;79;21166;-40
2021/03/26 10:43:53;;;;;;;7.53;5.37;;;;;;;17.59;26.66;99810.50;1798651;79;22144;-40
2021/03/26 10:46:31;;;;;;;6.35;4.97;;;;;;;17.88;25.80;99834.52;1798352;79;22309;-40
2021/03/26 10:49:14;;;;;;;6.05;4.35;;;;;;;17.96;26.64;99843.69;1796850;79;21159;-40
2021/03/26 10:52:04;;;;;;;5.95;4.30;;;;;;;18.05;25.49;99839.17;1800426;79;21134;-40
2021/03/26 10:55:01;;;;;;;7.40;4.80;;;;;;;18.07;24.83;99836.80;1798169;79;21155;-41
2021/03/26 10:57:44;;;;;;;8.25;4.97;;;;;;;18.08;25.09;99837.78;1804293;79;21099;-41
2021/03/26 11:00:31;;;;;;;6.67;4.70;;;;;;;17.94;25.17;99831.56;1797659;79;21471;-40
2021/03/26 11:03:28;;;;;;;7.35;4.37;;;;;;;17.70;25.79;99827.72;1760701;81;21444;-40
2021/03/26 11:06:01;;;;;;;7.47;4.30;;;;;;;17.46;25.35;99793.67;1804348;79;21181;-40
2021/03/26 11:08:36;;;;;;;8.03;4.60;;;;;;;17.84;25.58;99830.41;1803340;79;21186;-40
2021/03/26 11:11:11;;;;;;;5.03;4.17;;;;;;;17.96;25.04;99836.07;1782667;79;21023;-40
2021/03/26 11:14:17;;;;;;;7.30;4.28;;;;;;;18.05;24.90;99830.94;1769195;79;21156;-41
2021/03/26 11:17:02;;;;;;;7.45;5.03;;;;;;;18.26;24.98;99839.06;1803842;79;21131;-40
2021/03/26 11:19:51;;;;;;;5.45;3.77;;;;;;;18.45;24.63;99825.44;1803531;79;21169;-40
2021/03/26 11:22:24;;;;;;;6.42;4.50;;;;;;;18.62;24.34;99825.37;1802963;79;21142;-40
2021/03/26 11:25:16;;;;;;;5.90;4.12;;;;;;;18.92;24.36;99824.00;1803844;79;21146;-40
2021/03/26 11:27:49;;;;;;;7.40;4.67;;;;;;;19.03;23.34;99816.44;1797929;79;21364;-41
2021/03/26 11:30:26;;;;;;;7.03;4.90;;;;;;;19.07;23.85;99815.84;1784909;79;21170;-40
2021/03/26 11:32:59;;;;;;;8.58;4.90;;;;;;;19.21;23.56;99821.21;1733874;81;21165;-40
2021/03/26 11:35:27;;;;;;;7.25;4.58;;;;;;;19.33;23.67;99814.41;1742637;81;21200;-40
2021/03/26 11:38:01;;;;;;;6.15;4.40;;;;;;;19.47;23.38;99819.80;1797644;79;21135;-40
2021/03/26 11:40:38;;;;;;;5.80;4.05;;;;;;;19.61;23.44;99818.28;1792382;79;21142;-41
2021/03/26 11:43:29;;;;;;;5.35;4.53;;;;;;;19.76;23.56;99812.81;1801201;79;21507;-41
2021/03/26 11:46:07;;;;;;;6.97;5.33;;;;;;;19.91;22.88;99803.21;1797411;79;21585;-40
2021/03/26 11:48:47;;;;;;;8.08;5.60;;;;;;;19.88;23.42;99817.80;1797875;79;21399;-40
2021/03/26 11:51:45;;;;;;;6.23;4.87;;;;;;;19.57;23.72;99810.66;1798393;79;21437;-40
2021/03/26 11:54:27;;;;;;;6.72;4.92;;;;;;;19.30;24.05;99808.36;1754520;79;21292;-40
2021/03/26 11:57:07;;;;;;;6.30;4.55;;;;;;;19.20;23.90;99803.15;1798246;79;21135;-40
2021/03/26 12:00:22;;;;;;;6.42;4.30;;;;;;;19.32;23.48;99797.13;1796868;79;21147;-41
2021/03/26 12:03:22;;;;;;;5.42;4.47;;;;;;;19.52;22.72;99799.52;1799332;79;21561;-40
2021/03/26 12:06:23;;;;;;;5.28;4.60;;;;;;;19.71;22.89;99798.13;1772334;79;21744;-40
2021/03/26 12:09:21;;;;;;;7.72;4.80;;;;;;;20.01;22.86;99789.73;1795638;79;21209;-40
2021/03/26 12:12:01;;;;;;;6.25;4.83;;;;;;;20.27;23.00;99795.89;1798039;79;21166;-40
2021/03/26 12:14:57;;;;;;;6.78;4.65;;;;;;;20.18;22.30;99779.88;1795806;79;20992;-41
2021/03/26 12:17:36;;;;;;;6.30;4.35;;;;;;;19.88;23.17;99779.87;1798542;79;21040;-40
2021/03/26 12:20:22;;;;;;;6.07;4.33;;;;;;;19.76;23.17;99779.02;1798304;79;21138;-41
2021/03/26 12:23:07;;;;;;;5.45;4.28;;;;;;;19.69;23.07;99773.61;1796926;79;21378;-40
2021/03/26 12:26:05;;;;;;;5.25;3.75;;;;;;;19.67;23.42;99785.61;1768025;79;21444;-40
2021/03/26 12:28:56;;;;;;;5.12;3.92;;;;;;;19.79;22.46;99774.09;1799160;79;21462;-41
2021/03/26 12:31:50;;;;;;;5.45;4.22;;;;;;;19.99;22.34;99775.02;1798681;79;21148;-40
2021/03/26 12:34:32;;;;;;;5.90;4.25;;;;;;;20.11;21.69;99767.58;1798711;79;21446;-40
2021/03/26 12:37:09;;;;;;;5.17;4.22;;;;;;;20.33;22.91;99768.86;1796911;79;21628;-40
2021/03/26 12:39:40;;;;;;;6.47;4.47;;;;;;;20.63;23.11;99761.14;1800276;79;21158;-40
2021/03/26 12:42:24;;;;;;;7.10;5.12;;;;;;;20.79;23.35;99770.16;1799251;79;21687;-41
2021/03/26 12:45:24;;;;;;;6.42;4.50;;;;;;;20.91;23.26;99757.77;1800320;79;21147;-40
2021/03/26 12:48:03;;;;;;;11.35;7.50;;;;;;;20.74;22.81;99760.38;1796607;79;22003;-40
2021/03/26 12:50:40;;;;;;;24.57;15.03;;;;;;;20.72;23.14;99762.02;1798920;79;22166;-40
2021/03/26 12:53:26;;;;;;;8.85;5.67;;;;;;;20.65;23.07;99756.00;1797997;79;21158;-39
2021/03/26 12:56:33;;;;;;;5.00;4.10;;;;;;;20.45;22.95;99759.86;1788187;79;21190;-41
2021/03/26 12:59:15;;;;;;;5.33;3.75;;;;;;;20.48;23.17;99759.80;1797694;79;21159;-41
2021/03/26 13:01:55;;;;;;;5.00;3.72;;;;;;;20.72;23.25;99758.63;1775283;79;21427;-41